sensor_id;sensor_type;location;lat;lon;timestamp;temperature;humidity
24678;DHT22;12800;53.094;8.778;2023-07-29T00:01:30;20.20;94.00
24678;DHT22;12800;53.094;8.778;2023-07-29T00:03:56;20.20;94.00
24678;DHT22;12800;53.094;8.778;2023-07-29T00:06:22;20.10;94.00
24678;DHT22;12800;53.094;8.778;2023-07-29T00:08:47;20.10;94.00
24678;DHT22;12800;53.094;8.778;2023-07-29T00:11:13;20.10;94.00
24678;DHT22;12800;53.094;8.778;2023-07-29T00:13:39;20.10;94.00
24678;DHT22;12800;53.094;8.778;2023-07-29T00:16:04;20.10;94.00
24678;DHT22;12800;53.094;8.778;2023-07-29T00:18:30;20.10;94.00
24678;DHT22;12800;53.094;8.778;2023-07-29T00:20:56;20.10;94.00
24678;DHT22;12800;53.094;8.778;2023-07-29T00:23:23;20.00;93.90
24678;DHT22;12800;53.094;8.778;2023-07-29T00:25:48;20.00;93.90
24678;DHT22;12800;53.094;8.778;2023-07-29T00:28:14;20.00;93.90
24678;DHT22;12800;53.094;8.778;2023-07-29T00:30:39;19.90;94.00
24678;DHT22;12800;53.094;8.778;2023-07-29T00:33:05;19.90;94.10
24678;DHT22;12800;53.094;8.778;2023-07-29T00:35:31;19.90;94.10
24678;DHT22;12800;53.094;8.778;2023-07-29T00:37:56;19.90;94.20
24678;DHT22;12800;53.094;8.778;2023-07-29T00:40:22;19.90;94.30
24678;DHT22;12800;53.094;8.778;2023-07-29T00:42:49;19.90;94.30
24678;DHT22;12800;53.094;8.778;2023-07-29T00:45:15;19.90;94.40
24678;DHT22;12800;53.094;8.778;2023-07-29T00:47:42;19.90;94.50
24678;DHT22;12800;53.094;8.778;2023-07-29T00:50:09;19.90;94.50
24678;DHT22;12800;53.094;8.778;2023-07-29T00:52:36;19.90;94.50
24678;DHT22;12800;53.094;8.778;2023-07-29T00:55:03;19.90;94.50
24678;DHT22;12800;53.094;8.778;2023-07-29T00:57:30;19.90;94.40
24678;DHT22;12800;53.094;8.778;2023-07-29T00:59:55;19.90;94.40
24678;DHT22;12800;53.094;8.778;2023-07-29T01:02:21;19.90;94.40
24678;DHT22;12800;53.094;8.778;2023-07-29T01:04:54;19.90;94.50
24678;DHT22;12800;53.094;8.778;2023-07-29T01:10:01;19.90;94.50
24678;DHT22;12800;53.094;8.778;2023-07-29T01:15:14;19.90;94.50
24678;DHT22;12800;53.094;8.778;2023-07-29T01:18:04;19.90;94.50
24678;DHT22;12800;53.094;8.778;2023-07-29T01:20:33;19.90;94.50
24678;DHT22;12800;53.094;8.778;2023-07-29T01:22:59;19.90;94.40
24678;DHT22;12800;53.094;8.778;2023-07-29T01:25:24;19.90;94.40
24678;DHT22;12800;53.094;8.778;2023-07-29T01:27:51;19.80;94.40
24678;DHT22;12800;53.094;8.778;2023-07-29T01:30:28;19.80;94.30
24678;DHT22;12800;53.094;8.778;2023-07-29T01:33:16;19.80;94.40
24678;DHT22;12800;53.094;8.778;2023-07-29T01:35:54;19.80;94.30
24678;DHT22;12800;53.094;8.778;2023-07-29T01:38:33;19.80;94.40
24678;DHT22;12800;53.094;8.778;2023-07-29T01:41:07;19.70;94.40
24678;DHT22;12800;53.094;8.778;2023-07-29T01:43:33;19.80;94.40
24678;DHT22;12800;53.094;8.778;2023-07-29T01:46:00;19.80;94.30
24678;DHT22;12800;53.094;8.778;2023-07-29T01:48:26;19.70;94.60
24678;DHT22;12800;53.094;8.778;2023-07-29T01:50:54;19.70;94.30
24678;DHT22;12800;53.094;8.778;2023-07-29T01:53:19;19.70;94.30
24678;DHT22;12800;53.094;8.778;2023-07-29T01:55:45;19.70;94.30
24678;DHT22;12800;53.094;8.778;2023-07-29T01:58:11;19.60;94.20
24678;DHT22;12800;53.094;8.778;2023-07-29T02:00:36;19.60;94.20
24678;DHT22;12800;53.094;8.778;2023-07-29T02:03:02;19.60;94.20
24678;DHT22;12800;53.094;8.778;2023-07-29T02:05:28;19.60;94.20
24678;DHT22;12800;53.094;8.778;2023-07-29T02:07:53;19.60;94.30
24678;DHT22;12800;53.094;8.778;2023-07-29T02:10:19;19.50;94.30
24678;DHT22;12800;53.094;8.778;2023-07-29T02:12:45;19.50;94.30
24678;DHT22;12800;53.094;8.778;2023-07-29T02:15:10;19.50;94.30
24678;DHT22;12800;53.094;8.778;2023-07-29T02:17:36;19.50;94.30
24678;DHT22;12800;53.094;8.778;2023-07-29T02:20:03;19.50;94.30
24678;DHT22;12800;53.094;8.778;2023-07-29T02:22:29;19.40;94.30
24678;DHT22;12800;53.094;8.778;2023-07-29T02:24:55;19.40;94.20
24678;DHT22;12800;53.094;8.778;2023-07-29T02:27:21;19.40;94.20
24678;DHT22;12800;53.094;8.778;2023-07-29T02:29:46;19.40;94.20
24678;DHT22;12800;53.094;8.778;2023-07-29T02:32:12;19.40;94.20
24678;DHT22;12800;53.094;8.778;2023-07-29T02:34:38;19.40;94.20
24678;DHT22;12800;53.094;8.778;2023-07-29T02:37:03;19.40;94.20
24678;DHT22;12800;53.094;8.778;2023-07-29T02:39:29;19.30;94.20
24678;DHT22;12800;53.094;8.778;2023-07-29T02:41:55;19.30;94.20
24678;DHT22;12800;53.094;8.778;2023-07-29T02:44:21;19.30;94.20
24678;DHT22;12800;53.094;8.778;2023-07-29T02:46:46;19.30;94.30
24678;DHT22;12800;53.094;8.778;2023-07-29T02:49:12;19.20;94.30
24678;DHT22;12800;53.094;8.778;2023-07-29T02:51:38;19.30;94.40
24678;DHT22;12800;53.094;8.778;2023-07-29T02:54:03;19.30;94.40
24678;DHT22;12800;53.094;8.778;2023-07-29T02:56:29;19.30;94.40
24678;DHT22;12800;53.094;8.778;2023-07-29T02:58:56;19.20;94.30
24678;DHT22;12800;53.094;8.778;2023-07-29T03:01:23;19.20;94.70
24678;DHT22;12800;53.094;8.778;2023-07-29T03:03:50;19.20;94.30
24678;DHT22;12800;53.094;8.778;2023-07-29T03:06:16;19.20;94.30
24678;DHT22;12800;53.094;8.778;2023-07-29T03:08:41;19.20;94.30
24678;DHT22;12800;53.094;8.778;2023-07-29T03:11:16;19.10;94.30
24678;DHT22;12800;53.094;8.778;2023-07-29T03:13:43;19.10;94.30
24678;DHT22;12800;53.094;8.778;2023-07-29T03:18:34;19.10;94.30
24678;DHT22;12800;53.094;8.778;2023-07-29T03:21:00;19.10;94.30
24678;DHT22;12800;53.094;8.778;2023-07-29T03:23:27;19.10;94.30
24678;DHT22;12800;53.094;8.778;2023-07-29T03:25:55;19.10;94.30
24678;DHT22;12800;53.094;8.778;2023-07-29T03:28:23;19.10;94.30
24678;DHT22;12800;53.094;8.778;2023-07-29T03:30:49;19.10;94.30
24678;DHT22;12800;53.094;8.778;2023-07-29T03:33:15;19.10;94.40
24678;DHT22;12800;53.094;8.778;2023-07-29T03:35:40;19.10;94.40
24678;DHT22;12800;53.094;8.778;2023-07-29T03:38:09;19.10;94.40
24678;DHT22;12800;53.094;8.778;2023-07-29T03:40:35;19.10;94.40
24678;DHT22;12800;53.094;8.778;2023-07-29T03:43:01;19.10;94.40
24678;DHT22;12800;53.094;8.778;2023-07-29T03:45:26;19.20;94.40
24678;DHT22;12800;53.094;8.778;2023-07-29T03:47:52;19.20;94.40
24678;DHT22;12800;53.094;8.778;2023-07-29T03:50:17;19.10;94.30
24678;DHT22;12800;53.094;8.778;2023-07-29T03:52:43;19.20;94.30
24678;DHT22;12800;53.094;8.778;2023-07-29T03:55:09;19.20;94.40
24678;DHT22;12800;53.094;8.778;2023-07-29T03:57:34;19.20;94.40
24678;DHT22;12800;53.094;8.778;2023-07-29T04:00:00;19.20;94.40
24678;DHT22;12800;53.094;8.778;2023-07-29T04:02:26;19.20;94.40
24678;DHT22;12800;53.094;8.778;2023-07-29T04:04:51;19.20;94.40
24678;DHT22;12800;53.094;8.778;2023-07-29T04:07:17;19.20;94.40
24678;DHT22;12800;53.094;8.778;2023-07-29T04:09:42;19.20;94.40
24678;DHT22;12800;53.094;8.778;2023-07-29T04:12:09;19.20;94.60
24678;DHT22;12800;53.094;8.778;2023-07-29T04:14:35;19.20;95.00
24678;DHT22;12800;53.094;8.778;2023-07-29T04:17:00;19.20;94.70
24678;DHT22;12800;53.094;8.778;2023-07-29T04:19:26;19.20;95.10
24678;DHT22;12800;53.094;8.778;2023-07-29T04:21:52;19.30;94.90
24678;DHT22;12800;53.094;8.778;2023-07-29T04:24:17;19.30;94.80
24678;DHT22;12800;53.094;8.778;2023-07-29T04:26:45;19.30;94.90
24678;DHT22;12800;53.094;8.778;2023-07-29T04:29:11;19.30;94.90
24678;DHT22;12800;53.094;8.778;2023-07-29T04:31:37;19.40;94.90
24678;DHT22;12800;53.094;8.778;2023-07-29T04:34:04;19.40;94.80
24678;DHT22;12800;53.094;8.778;2023-07-29T04:36:30;19.40;94.80
24678;DHT22;12800;53.094;8.778;2023-07-29T04:38:55;19.40;94.80
24678;DHT22;12800;53.094;8.778;2023-07-29T04:41:21;19.40;94.80
24678;DHT22;12800;53.094;8.778;2023-07-29T04:43:46;19.40;94.80
24678;DHT22;12800;53.094;8.778;2023-07-29T04:46:12;19.40;94.70
24678;DHT22;12800;53.094;8.778;2023-07-29T04:48:38;19.50;94.70
24678;DHT22;12800;53.094;8.778;2023-07-29T04:51:03;19.50;94.60
24678;DHT22;12800;53.094;8.778;2023-07-29T04:53:29;19.50;94.60
24678;DHT22;12800;53.094;8.778;2023-07-29T04:55:55;19.50;94.50
24678;DHT22;12800;53.094;8.778;2023-07-29T04:58:20;19.60;94.50
24678;DHT22;12800;53.094;8.778;2023-07-29T05:00:47;19.50;94.40
24678;DHT22;12800;53.094;8.778;2023-07-29T05:03:12;19.50;94.40
24678;DHT22;12800;53.094;8.778;2023-07-29T05:05:38;19.50;94.40
24678;DHT22;12800;53.094;8.778;2023-07-29T05:08:04;19.60;94.40
24678;DHT22;12800;53.094;8.778;2023-07-29T05:10:29;19.60;94.40
24678;DHT22;12800;53.094;8.778;2023-07-29T05:12:55;19.70;94.70
24678;DHT22;12800;53.094;8.778;2023-07-29T05:15:20;19.70;94.30
24678;DHT22;12800;53.094;8.778;2023-07-29T05:17:46;19.70;94.30
24678;DHT22;12800;53.094;8.778;2023-07-29T05:20:11;19.70;94.30
24678;DHT22;12800;53.094;8.778;2023-07-29T05:22:37;19.80;94.20
24678;DHT22;12800;53.094;8.778;2023-07-29T05:25:03;19.80;94.20
24678;DHT22;12800;53.094;8.778;2023-07-29T05:27:28;19.90;94.20
24678;DHT22;12800;53.094;8.778;2023-07-29T05:29:54;19.90;94.10
24678;DHT22;12800;53.094;8.778;2023-07-29T05:32:20;20.00;94.10
24678;DHT22;12800;53.094;8.778;2023-07-29T05:34:45;20.00;94.10
24678;DHT22;12800;53.094;8.778;2023-07-29T05:37:11;20.10;94.10
24678;DHT22;12800;53.094;8.778;2023-07-29T05:39:36;20.10;93.90
24678;DHT22;12800;53.094;8.778;2023-07-29T05:42:03;20.10;93.80
24678;DHT22;12800;53.094;8.778;2023-07-29T05:44:28;20.10;93.80
24678;DHT22;12800;53.094;8.778;2023-07-29T05:46:56;20.10;93.80
24678;DHT22;12800;53.094;8.778;2023-07-29T05:49:22;20.10;93.70
24678;DHT22;12800;53.094;8.778;2023-07-29T05:51:47;20.10;93.70
24678;DHT22;12800;53.094;8.778;2023-07-29T05:54:13;20.10;93.70
24678;DHT22;12800;53.094;8.778;2023-07-29T05:56:39;20.20;93.70
24678;DHT22;12800;53.094;8.778;2023-07-29T05:59:05;20.10;93.60
24678;DHT22;12800;53.094;8.778;2023-07-29T06:01:30;20.20;93.60
24678;DHT22;12800;53.094;8.778;2023-07-29T06:03:56;20.20;93.70
24678;DHT22;12800;53.094;8.778;2023-07-29T06:06:21;20.20;93.80
24678;DHT22;12800;53.094;8.778;2023-07-29T06:08:49;20.20;93.80
24678;DHT22;12800;53.094;8.778;2023-07-29T06:11:15;20.20;93.90
24678;DHT22;12800;53.094;8.778;2023-07-29T06:13:40;20.30;93.90
24678;DHT22;12800;53.094;8.778;2023-07-29T06:16:06;20.30;93.80
24678;DHT22;12800;53.094;8.778;2023-07-29T06:18:31;20.40;93.70
24678;DHT22;12800;53.094;8.778;2023-07-29T06:20:57;20.40;93.70
24678;DHT22;12800;53.094;8.778;2023-07-29T06:23:23;20.40;93.70
24678;DHT22;12800;53.094;8.778;2023-07-29T06:25:48;20.50;93.80
24678;DHT22;12800;53.094;8.778;2023-07-29T06:28:14;20.50;93.70
24678;DHT22;12800;53.094;8.778;2023-07-29T06:30:39;20.50;93.70
24678;DHT22;12800;53.094;8.778;2023-07-29T06:33:06;20.50;93.70
24678;DHT22;12800;53.094;8.778;2023-07-29T06:35:31;20.60;93.70
24678;DHT22;12800;53.094;8.778;2023-07-29T06:37:57;20.60;93.70
24678;DHT22;12800;53.094;8.778;2023-07-29T06:40:23;20.70;93.80
24678;DHT22;12800;53.094;8.778;2023-07-29T06:42:48;20.70;93.70
24678;DHT22;12800;53.094;8.778;2023-07-29T06:45:14;20.70;93.60
24678;DHT22;12800;53.094;8.778;2023-07-29T06:47:41;20.80;93.70
24678;DHT22;12800;53.094;8.778;2023-07-29T06:50:06;20.80;93.60
24678;DHT22;12800;53.094;8.778;2023-07-29T06:52:32;20.80;93.60
24678;DHT22;12800;53.094;8.778;2023-07-29T06:54:58;20.80;93.50
24678;DHT22;12800;53.094;8.778;2023-07-29T06:57:24;20.90;93.50
24678;DHT22;12800;53.094;8.778;2023-07-29T06:59:49;20.90;93.30
24678;DHT22;12800;53.094;8.778;2023-07-29T07:02:15;20.90;93.30
24678;DHT22;12800;53.094;8.778;2023-07-29T07:04:40;21.00;93.20
24678;DHT22;12800;53.094;8.778;2023-07-29T07:07:06;21.00;93.00
24678;DHT22;12800;53.094;8.778;2023-07-29T07:09:32;21.00;93.10
24678;DHT22;12800;53.094;8.778;2023-07-29T07:11:57;21.10;93.10
24678;DHT22;12800;53.094;8.778;2023-07-29T07:14:23;21.20;93.00
24678;DHT22;12800;53.094;8.778;2023-07-29T07:16:48;21.30;92.90
24678;DHT22;12800;53.094;8.778;2023-07-29T07:19:14;21.30;92.80
24678;DHT22;12800;53.094;8.778;2023-07-29T07:21:40;21.40;92.70
24678;DHT22;12800;53.094;8.778;2023-07-29T07:24:05;21.40;92.60
24678;DHT22;12800;53.094;8.778;2023-07-29T07:26:31;21.40;92.50
24678;DHT22;12800;53.094;8.778;2023-07-29T07:28:57;21.50;92.50
24678;DHT22;12800;53.094;8.778;2023-07-29T07:31:22;21.60;92.40
24678;DHT22;12800;53.094;8.778;2023-07-29T07:33:48;21.60;92.20
24678;DHT22;12800;53.094;8.778;2023-07-29T07:36:14;21.70;92.30
24678;DHT22;12800;53.094;8.778;2023-07-29T07:38:41;21.70;91.80
24678;DHT22;12800;53.094;8.778;2023-07-29T07:41:06;21.80;91.70
24678;DHT22;12800;53.094;8.778;2023-07-29T07:43:32;21.80;91.50
24678;DHT22;12800;53.094;8.778;2023-07-29T07:45:59;21.80;91.40
24678;DHT22;12800;53.094;8.778;2023-07-29T07:48:26;21.80;91.40
24678;DHT22;12800;53.094;8.778;2023-07-29T07:50:51;21.80;91.40
24678;DHT22;12800;53.094;8.778;2023-07-29T07:53:17;21.80;90.90
24678;DHT22;12800;53.094;8.778;2023-07-29T07:55:42;21.80;90.70
24678;DHT22;12800;53.094;8.778;2023-07-29T07:58:08;21.80;90.60
24678;DHT22;12800;53.094;8.778;2023-07-29T08:00:34;21.80;90.90
24678;DHT22;12800;53.094;8.778;2023-07-29T08:02:59;21.80;90.10
24678;DHT22;12800;53.094;8.778;2023-07-29T08:05:25;21.80;90.10
24678;DHT22;12800;53.094;8.778;2023-07-29T08:07:50;21.80;90.10
24678;DHT22;12800;53.094;8.778;2023-07-29T08:10:16;21.80;90.20
24678;DHT22;12800;53.094;8.778;2023-07-29T08:12:42;21.80;89.60
24678;DHT22;12800;53.094;8.778;2023-07-29T08:15:07;21.80;89.40
24678;DHT22;12800;53.094;8.778;2023-07-29T08:17:33;21.80;88.70
24678;DHT22;12800;53.094;8.778;2023-07-29T08:19:59;21.80;89.00
24678;DHT22;12800;53.094;8.778;2023-07-29T08:22:24;21.80;88.20
24678;DHT22;12800;53.094;8.778;2023-07-29T08:24:50;21.80;87.70
24678;DHT22;12800;53.094;8.778;2023-07-29T08:27:15;21.90;87.50
24678;DHT22;12800;53.094;8.778;2023-07-29T08:29:41;21.90;86.90
24678;DHT22;12800;53.094;8.778;2023-07-29T08:32:07;22.00;86.80
24678;DHT22;12800;53.094;8.778;2023-07-29T08:34:32;22.00;86.20
24678;DHT22;12800;53.094;8.778;2023-07-29T08:36:58;22.10;85.60
24678;DHT22;12800;53.094;8.778;2023-07-29T08:39:25;22.10;84.90
24678;DHT22;12800;53.094;8.778;2023-07-29T08:41:54;22.10;84.40
24678;DHT22;12800;53.094;8.778;2023-07-29T08:44:23;22.10;84.10
24678;DHT22;12800;53.094;8.778;2023-07-29T08:46:49;22.10;83.80
24678;DHT22;12800;53.094;8.778;2023-07-29T08:49:16;22.00;83.50
24678;DHT22;12800;53.094;8.778;2023-07-29T08:51:47;22.00;83.10
24678;DHT22;12800;53.094;8.778;2023-07-29T08:54:16;22.10;83.30
24678;DHT22;12800;53.094;8.778;2023-07-29T08:56:42;22.10;83.10
24678;DHT22;12800;53.094;8.778;2023-07-29T08:59:09;22.20;82.90
24678;DHT22;12800;53.094;8.778;2023-07-29T09:01:39;22.30;83.00
24678;DHT22;12800;53.094;8.778;2023-07-29T09:04:05;22.40;83.70
24678;DHT22;12800;53.094;8.778;2023-07-29T09:06:31;22.40;82.50
24678;DHT22;12800;53.094;8.778;2023-07-29T09:08:58;22.50;82.40
24678;DHT22;12800;53.094;8.778;2023-07-29T09:11:24;22.60;81.50
24678;DHT22;12800;53.094;8.778;2023-07-29T09:13:50;22.70;81.60
24678;DHT22;12800;53.094;8.778;2023-07-29T09:16:16;22.90;80.80
24678;DHT22;12800;53.094;8.778;2023-07-29T09:18:42;23.00;80.30
24678;DHT22;12800;53.094;8.778;2023-07-29T09:21:07;23.10;79.80
24678;DHT22;12800;53.094;8.778;2023-07-29T09:23:41;23.10;80.10
24678;DHT22;12800;53.094;8.778;2023-07-29T09:26:07;23.20;79.60
24678;DHT22;12800;53.094;8.778;2023-07-29T09:28:39;23.20;79.20
24678;DHT22;12800;53.094;8.778;2023-07-29T09:31:05;23.20;78.50
24678;DHT22;12800;53.094;8.778;2023-07-29T09:33:35;23.20;78.00
24678;DHT22;12800;53.094;8.778;2023-07-29T09:36:09;23.20;77.70
24678;DHT22;12800;53.094;8.778;2023-07-29T09:38:35;23.10;77.20
24678;DHT22;12800;53.094;8.778;2023-07-29T09:41:01;23.10;76.80
24678;DHT22;12800;53.094;8.778;2023-07-29T09:43:34;23.00;76.80
24678;DHT22;12800;53.094;8.778;2023-07-29T09:46:04;23.00;76.50
24678;DHT22;12800;53.094;8.778;2023-07-29T09:48:34;22.90;76.70
24678;DHT22;12800;53.094;8.778;2023-07-29T09:51:09;22.80;76.90
24678;DHT22;12800;53.094;8.778;2023-07-29T09:53:43;22.70;77.00
24678;DHT22;12800;53.094;8.778;2023-07-29T09:56:09;22.60;76.80
24678;DHT22;12800;53.094;8.778;2023-07-29T09:58:35;22.60;76.70
24678;DHT22;12800;53.094;8.778;2023-07-29T10:01:06;22.50;77.00
24678;DHT22;12800;53.094;8.778;2023-07-29T10:03:32;22.50;77.20
24678;DHT22;12800;53.094;8.778;2023-07-29T10:06:06;22.50;77.40
24678;DHT22;12800;53.094;8.778;2023-07-29T10:08:32;22.50;77.70
24678;DHT22;12800;53.094;8.778;2023-07-29T10:11:01;22.60;77.80
24678;DHT22;12800;53.094;8.778;2023-07-29T10:13:28;22.70;77.30
24678;DHT22;12800;53.094;8.778;2023-07-29T10:15:54;22.80;77.10
24678;DHT22;12800;53.094;8.778;2023-07-29T10:18:23;22.90;77.20
24678;DHT22;12800;53.094;8.778;2023-07-29T10:20:51;23.00;76.80
24678;DHT22;12800;53.094;8.778;2023-07-29T10:23:18;23.10;76.50
24678;DHT22;12800;53.094;8.778;2023-07-29T10:25:49;23.20;76.50
24678;DHT22;12800;53.094;8.778;2023-07-29T10:28:15;23.30;75.70
24678;DHT22;12800;53.094;8.778;2023-07-29T10:30:44;23.40;75.20
24678;DHT22;12800;53.094;8.778;2023-07-29T10:33:10;23.40;75.20
24678;DHT22;12800;53.094;8.778;2023-07-29T10:35:36;23.40;74.40
24678;DHT22;12800;53.094;8.778;2023-07-29T10:38:03;23.40;74.20
24678;DHT22;12800;53.094;8.778;2023-07-29T10:40:51;23.40;73.40
24678;DHT22;12800;53.094;8.778;2023-07-29T10:43:26;23.20;73.10
24678;DHT22;12800;53.094;8.778;2023-07-29T10:45:52;23.10;73.20
24678;DHT22;12800;53.094;8.778;2023-07-29T10:54:13;22.80;73.40
24678;DHT22;12800;53.094;8.778;2023-07-29T10:56:43;22.80;74.10
24678;DHT22;12800;53.094;8.778;2023-07-29T11:01:39;22.90;73.40
24678;DHT22;12800;53.094;8.778;2023-07-29T11:12:42;23.50;72.50
24678;DHT22;12800;53.094;8.778;2023-07-29T11:17:41;23.80;71.10
24678;DHT22;12800;53.094;8.778;2023-07-29T11:20:08;23.80;71.20
24678;DHT22;12800;53.094;8.778;2023-07-29T11:22:34;23.80;70.20
24678;DHT22;12800;53.094;8.778;2023-07-29T11:25:00;23.90;70.20
24678;DHT22;12800;53.094;8.778;2023-07-29T11:27:26;23.90;69.90
24678;DHT22;12800;53.094;8.778;2023-07-29T11:29:57;23.80;69.50
24678;DHT22;12800;53.094;8.778;2023-07-29T11:32:24;23.80;69.50
24678;DHT22;12800;53.094;8.778;2023-07-29T11:34:50;23.80;69.60
24678;DHT22;12800;53.094;8.778;2023-07-29T11:37:16;23.80;69.90
24678;DHT22;12800;53.094;8.778;2023-07-29T11:39:44;23.80;69.70
24678;DHT22;12800;53.094;8.778;2023-07-29T11:42:14;23.80;69.70
24678;DHT22;12800;53.094;8.778;2023-07-29T11:44:40;23.80;69.50
24678;DHT22;12800;53.094;8.778;2023-07-29T11:47:07;23.90;69.80
24678;DHT22;12800;53.094;8.778;2023-07-29T11:49:37;23.90;69.80
24678;DHT22;12800;53.094;8.778;2023-07-29T11:52:04;24.00;69.40
24678;DHT22;12800;53.094;8.778;2023-07-29T11:54:31;24.10;68.80
24678;DHT22;12800;53.094;8.778;2023-07-29T11:56:57;24.10;68.60
24678;DHT22;12800;53.094;8.778;2023-07-29T11:59:23;24.00;67.70
24678;DHT22;12800;53.094;8.778;2023-07-29T12:01:49;23.90;68.10
24678;DHT22;12800;53.094;8.778;2023-07-29T12:04:15;23.80;68.00
24678;DHT22;12800;53.094;8.778;2023-07-29T12:06:41;23.80;67.90
24678;DHT22;12800;53.094;8.778;2023-07-29T12:09:07;23.80;67.70
24678;DHT22;12800;53.094;8.778;2023-07-29T12:11:34;23.70;67.40
24678;DHT22;12800;53.094;8.778;2023-07-29T12:14:00;23.70;67.50
24678;DHT22;12800;53.094;8.778;2023-07-29T12:16:26;23.70;67.40
24678;DHT22;12800;53.094;8.778;2023-07-29T12:18:52;23.70;67.60
24678;DHT22;12800;53.094;8.778;2023-07-29T12:21:20;23.80;67.70
24678;DHT22;12800;53.094;8.778;2023-07-29T12:23:46;23.80;67.90
24678;DHT22;12800;53.094;8.778;2023-07-29T12:26:12;23.90;68.10
24678;DHT22;12800;53.094;8.778;2023-07-29T12:28:37;24.00;67.90
24678;DHT22;12800;53.094;8.778;2023-07-29T12:31:07;24.00;68.30
24678;DHT22;12800;53.094;8.778;2023-07-29T12:33:38;24.00;67.20
24678;DHT22;12800;53.094;8.778;2023-07-29T12:36:04;24.10;67.40
24678;DHT22;12800;53.094;8.778;2023-07-29T12:38:30;24.20;67.20
24678;DHT22;12800;53.094;8.778;2023-07-29T12:40:56;24.30;67.00
24678;DHT22;12800;53.094;8.778;2023-07-29T12:43:22;24.40;66.40
24678;DHT22;12800;53.094;8.778;2023-07-29T12:45:51;24.60;66.20
24678;DHT22;12800;53.094;8.778;2023-07-29T12:48:16;24.80;65.60
24678;DHT22;12800;53.094;8.778;2023-07-29T12:50:42;24.80;65.10
24678;DHT22;12800;53.094;8.778;2023-07-29T12:53:09;24.90;65.10
24678;DHT22;12800;53.094;8.778;2023-07-29T12:55:38;24.90;64.70
24678;DHT22;12800;53.094;8.778;2023-07-29T12:58:03;24.90;64.30
24678;DHT22;12800;53.094;8.778;2023-07-29T13:00:30;24.90;64.30
24678;DHT22;12800;53.094;8.778;2023-07-29T13:02:56;24.80;63.90
24678;DHT22;12800;53.094;8.778;2023-07-29T13:05:21;24.80;64.40
24678;DHT22;12800;53.094;8.778;2023-07-29T13:07:47;24.80;64.60
24678;DHT22;12800;53.094;8.778;2023-07-29T13:10:13;24.80;64.40
24678;DHT22;12800;53.094;8.778;2023-07-29T13:12:39;24.90;64.70
24678;DHT22;12800;53.094;8.778;2023-07-29T13:15:06;25.10;64.20
24678;DHT22;12800;53.094;8.778;2023-07-29T13:17:32;25.20;64.00
24678;DHT22;12800;53.094;8.778;2023-07-29T13:19:58;25.30;63.50
24678;DHT22;12800;53.094;8.778;2023-07-29T13:22:24;25.40;63.40
24678;DHT22;12800;53.094;8.778;2023-07-29T13:24:49;25.50;63.30
24678;DHT22;12800;53.094;8.778;2023-07-29T13:27:15;25.70;63.00
24678;DHT22;12800;53.094;8.778;2023-07-29T13:29:40;25.90;62.80
24678;DHT22;12800;53.094;8.778;2023-07-29T13:32:07;26.00;62.70
24678;DHT22;12800;53.094;8.778;2023-07-29T13:34:33;26.10;62.30
24678;DHT22;12800;53.094;8.778;2023-07-29T13:37:00;26.10;62.30
24678;DHT22;12800;53.094;8.778;2023-07-29T13:39:25;26.20;61.90
24678;DHT22;12800;53.094;8.778;2023-07-29T13:41:51;26.20;61.80
24678;DHT22;12800;53.094;8.778;2023-07-29T13:44:16;26.40;61.70
24678;DHT22;12800;53.094;8.778;2023-07-29T13:46:42;26.60;60.80
24678;DHT22;12800;53.094;8.778;2023-07-29T13:49:07;26.70;59.90
24678;DHT22;12800;53.094;8.778;2023-07-29T13:51:33;26.80;59.80
24678;DHT22;12800;53.094;8.778;2023-07-29T13:53:59;26.80;59.50
24678;DHT22;12800;53.094;8.778;2023-07-29T13:56:24;26.80;59.40
24678;DHT22;12800;53.094;8.778;2023-07-29T13:58:50;26.70;59.70
24678;DHT22;12800;53.094;8.778;2023-07-29T14:01:16;26.70;60.10
24678;DHT22;12800;53.094;8.778;2023-07-29T14:03:41;26.60;60.30
24678;DHT22;12800;53.094;8.778;2023-07-29T14:06:07;26.70;60.70
24678;DHT22;12800;53.094;8.778;2023-07-29T14:08:32;26.70;59.90
24678;DHT22;12800;53.094;8.778;2023-07-29T14:10:58;26.70;59.70
24678;DHT22;12800;53.094;8.778;2023-07-29T14:13:24;26.50;59.50
24678;DHT22;12800;53.094;8.778;2023-07-29T14:15:49;26.40;60.10
24678;DHT22;12800;53.094;8.778;2023-07-29T14:18:15;26.20;60.10
24678;DHT22;12800;53.094;8.778;2023-07-29T14:20:41;26.20;60.00
24678;DHT22;12800;53.094;8.778;2023-07-29T14:23:06;26.10;60.20
24678;DHT22;12800;53.094;8.778;2023-07-29T14:25:32;26.10;60.90
24678;DHT22;12800;53.094;8.778;2023-07-29T14:27:57;26.20;61.10
24678;DHT22;12800;53.094;8.778;2023-07-29T14:30:23;26.20;60.10
24678;DHT22;12800;53.094;8.778;2023-07-29T14:32:49;26.20;60.00
24678;DHT22;12800;53.094;8.778;2023-07-29T14:35:15;26.00;60.20
24678;DHT22;12800;53.094;8.778;2023-07-29T14:37:40;26.00;60.30
24678;DHT22;12800;53.094;8.778;2023-07-29T14:40:06;25.90;60.40
24678;DHT22;12800;53.094;8.778;2023-07-29T14:42:32;25.80;60.70
24678;DHT22;12800;53.094;8.778;2023-07-29T14:44:58;25.90;60.50
24678;DHT22;12800;53.094;8.778;2023-07-29T14:47:23;25.80;60.50
24678;DHT22;12800;53.094;8.778;2023-07-29T14:49:49;25.80;60.50
24678;DHT22;12800;53.094;8.778;2023-07-29T14:52:15;25.70;60.30
24678;DHT22;12800;53.094;8.778;2023-07-29T14:54:40;25.60;60.40
24678;DHT22;12800;53.094;8.778;2023-07-29T14:57:07;25.40;60.80
24678;DHT22;12800;53.094;8.778;2023-07-29T14:59:33;25.10;61.60
24678;DHT22;12800;53.094;8.778;2023-07-29T15:01:58;24.70;62.30
24678;DHT22;12800;53.094;8.778;2023-07-29T15:04:24;24.20;63.50
24678;DHT22;12800;53.094;8.778;2023-07-29T15:06:50;23.80;64.90
24678;DHT22;12800;53.094;8.778;2023-07-29T15:09:16;23.30;66.10
24678;DHT22;12800;53.094;8.778;2023-07-29T15:11:41;22.90;67.20
24678;DHT22;12800;53.094;8.778;2023-07-29T15:14:07;22.60;68.10
24678;DHT22;12800;53.094;8.778;2023-07-29T15:16:33;22.30;68.60
24678;DHT22;12800;53.094;8.778;2023-07-29T15:19:03;22.20;69.80
24678;DHT22;12800;53.094;8.778;2023-07-29T15:21:32;22.10;71.40
24678;DHT22;12800;53.094;8.778;2023-07-29T15:24:00;21.90;72.50
24678;DHT22;12800;53.094;8.778;2023-07-29T15:26:26;21.80;74.00
24678;DHT22;12800;53.094;8.778;2023-07-29T15:28:52;21.80;74.70
24678;DHT22;12800;53.094;8.778;2023-07-29T15:31:17;21.80;75.30
24678;DHT22;12800;53.094;8.778;2023-07-29T15:33:43;21.70;75.70
24678;DHT22;12800;53.094;8.778;2023-07-29T15:36:08;21.70;76.20
24678;DHT22;12800;53.094;8.778;2023-07-29T15:38:34;21.70;76.40
24678;DHT22;12800;53.094;8.778;2023-07-29T15:41:00;21.70;76.60
24678;DHT22;12800;53.094;8.778;2023-07-29T15:43:26;21.70;77.10
24678;DHT22;12800;53.094;8.778;2023-07-29T15:45:52;21.60;76.60
24678;DHT22;12800;53.094;8.778;2023-07-29T15:48:17;21.60;77.30
24678;DHT22;12800;53.094;8.778;2023-07-29T15:50:43;21.70;78.10
24678;DHT22;12800;53.094;8.778;2023-07-29T15:53:08;21.70;78.80